sensor_id;sensor_type;location;lat;lon;timestamp;temperature;humidity
15879;DHT22;61999;51.514;14.614;2022-11-02T00:00:40;4.50;64.80
15879;DHT22;61999;51.514;14.614;2022-11-02T00:03:08;4.40;64.80
15879;DHT22;61999;51.514;14.614;2022-11-02T00:05:36;4.40;64.80
15879;DHT22;61999;51.514;14.614;2022-11-02T00:08:04;4.40;64.80
15879;DHT22;61999;51.514;14.614;2022-11-02T00:10:32;4.30;64.80
15879;DHT22;61999;51.514;14.614;2022-11-02T00:13:00;4.30;64.80
15879;DHT22;61999;51.514;14.614;2022-11-02T00:15:31;4.30;64.80
15879;DHT22;61999;51.514;14.614;2022-11-02T00:18:03;4.20;64.80
15879;DHT22;61999;51.514;14.614;2022-11-02T00:20:35;4.20;64.80
15879;DHT22;61999;51.514;14.614;2022-11-02T00:23:04;4.20;64.80
15879;DHT22;61999;51.514;14.614;2022-11-02T00:25:38;4.20;64.90
15879;DHT22;61999;51.514;14.614;2022-11-02T00:28:08;4.10;64.80
15879;DHT22;61999;51.514;14.614;2022-11-02T00:30:37;4.10;64.80
15879;DHT22;61999;51.514;14.614;2022-11-02T00:33:06;4.10;64.70
15879;DHT22;61999;51.514;14.614;2022-11-02T00:35:35;4.00;64.70
15879;DHT22;61999;51.514;14.614;2022-11-02T00:38:03;4.00;65.50
15879;DHT22;61999;51.514;14.614;2022-11-02T00:40:32;4.00;64.70
15879;DHT22;61999;51.514;14.614;2022-11-02T00:43:00;4.00;64.70
15879;DHT22;61999;51.514;14.614;2022-11-02T00:45:28;3.90;64.70
15879;DHT22;61999;51.514;14.614;2022-11-02T00:47:55;3.90;64.70
15879;DHT22;61999;51.514;14.614;2022-11-02T00:50:25;3.80;64.60
15879;DHT22;61999;51.514;14.614;2022-11-02T00:52:53;3.80;64.70
15879;DHT22;61999;51.514;14.614;2022-11-02T00:55:20;3.80;64.70
15879;DHT22;61999;51.514;14.614;2022-11-02T00:57:48;3.80;64.70
15879;DHT22;61999;51.514;14.614;2022-11-02T01:00:16;3.70;64.50
15879;DHT22;61999;51.514;14.614;2022-11-02T01:02:44;3.70;64.60
15879;DHT22;61999;51.514;14.614;2022-11-02T01:05:12;3.70;64.50
15879;DHT22;61999;51.514;14.614;2022-11-02T01:07:42;3.60;64.50
15879;DHT22;61999;51.514;14.614;2022-11-02T01:10:10;3.60;64.50
15879;DHT22;61999;51.514;14.614;2022-11-02T01:12:38;3.60;64.60
15879;DHT22;61999;51.514;14.614;2022-11-02T01:15:08;3.50;64.50
15879;DHT22;61999;51.514;14.614;2022-11-02T01:17:36;3.50;64.50
15879;DHT22;61999;51.514;14.614;2022-11-02T01:20:06;3.50;64.50
15879;DHT22;61999;51.514;14.614;2022-11-02T01:22:35;3.40;64.50
15879;DHT22;61999;51.514;14.614;2022-11-02T01:25:04;3.40;64.50
15879;DHT22;61999;51.514;14.614;2022-11-02T01:27:33;3.30;64.40
15879;DHT22;61999;51.514;14.614;2022-11-02T01:30:02;3.30;65.20
15879;DHT22;61999;51.514;14.614;2022-11-02T01:32:30;3.30;64.50
15879;DHT22;61999;51.514;14.614;2022-11-02T01:34:58;3.30;64.50
15879;DHT22;61999;51.514;14.614;2022-11-02T01:37:28;3.20;64.40
15879;DHT22;61999;51.514;14.614;2022-11-02T01:39:56;3.20;64.40
15879;DHT22;61999;51.514;14.614;2022-11-02T01:42:25;3.20;64.50
15879;DHT22;61999;51.514;14.614;2022-11-02T01:44:54;3.20;64.50
15879;DHT22;61999;51.514;14.614;2022-11-02T01:47:25;3.10;64.50
15879;DHT22;61999;51.514;14.614;2022-11-02T01:50:01;3.10;64.50
15879;DHT22;61999;51.514;14.614;2022-11-02T01:52:34;3.10;64.50
15879;DHT22;61999;51.514;14.614;2022-11-02T01:55:06;3.10;64.50
15879;DHT22;61999;51.514;14.614;2022-11-02T01:57:42;3.00;64.60
15879;DHT22;61999;51.514;14.614;2022-11-02T02:00:14;3.10;65.20
15879;DHT22;61999;51.514;14.614;2022-11-02T02:02:48;3.10;64.90
15879;DHT22;61999;51.514;14.614;2022-11-02T02:05:20;3.10;65.10
15879;DHT22;61999;51.514;14.614;2022-11-02T02:07:51;3.10;65.10
15879;DHT22;61999;51.514;14.614;2022-11-02T02:10:20;3.00;65.00
15879;DHT22;61999;51.514;14.614;2022-11-02T02:12:49;3.00;65.00
15879;DHT22;61999;51.514;14.614;2022-11-02T02:15:18;3.00;65.00
15879;DHT22;61999;51.514;14.614;2022-11-02T02:17:56;3.00;65.10
15879;DHT22;61999;51.514;14.614;2022-11-02T02:20:40;2.90;65.00
15879;DHT22;61999;51.514;14.614;2022-11-02T02:27:01;2.90;65.00
15879;DHT22;61999;51.514;14.614;2022-11-02T02:29:59;2.90;65.00
15879;DHT22;61999;51.514;14.614;2022-11-02T02:32:38;2.80;64.90
15879;DHT22;61999;51.514;14.614;2022-11-02T02:35:19;2.80;65.00
15879;DHT22;61999;51.514;14.614;2022-11-02T02:37:53;2.80;65.00
15879;DHT22;61999;51.514;14.614;2022-11-02T02:40:30;2.80;65.30
15879;DHT22;61999;51.514;14.614;2022-11-02T02:43:05;2.90;65.50
15879;DHT22;61999;51.514;14.614;2022-11-02T02:45:41;3.00;67.40
15879;DHT22;61999;51.514;14.614;2022-11-02T02:48:15;3.10;67.70
15879;DHT22;61999;51.514;14.614;2022-11-02T02:50:48;3.10;67.50
15879;DHT22;61999;51.514;14.614;2022-11-02T02:53:20;3.20;67.70
15879;DHT22;61999;51.514;14.614;2022-11-02T02:55:51;3.10;67.50
15879;DHT22;61999;51.514;14.614;2022-11-02T02:58:23;3.20;67.60
15879;DHT22;61999;51.514;14.614;2022-11-02T03:00:55;3.20;68.20
15879;DHT22;61999;51.514;14.614;2022-11-02T03:03:27;3.20;68.00
15879;DHT22;61999;51.514;14.614;2022-11-02T03:06:03;3.20;68.50
15879;DHT22;61999;51.514;14.614;2022-11-02T03:08:35;3.10;67.50
15879;DHT22;61999;51.514;14.614;2022-11-02T03:11:11;3.10;67.50
15879;DHT22;61999;51.514;14.614;2022-11-02T03:13:49;3.00;67.30
15879;DHT22;61999;51.514;14.614;2022-11-02T03:16:43;3.00;67.40
15879;DHT22;61999;51.514;14.614;2022-11-02T03:19:37;3.00;67.30
15879;DHT22;61999;51.514;14.614;2022-11-02T03:22:20;3.00;67.20
15879;DHT22;61999;51.514;14.614;2022-11-02T03:24:58;2.90;67.10
15879;DHT22;61999;51.514;14.614;2022-11-02T03:27:38;2.90;67.10
15879;DHT22;61999;51.514;14.614;2022-11-02T03:30:11;2.90;67.10
15879;DHT22;61999;51.514;14.614;2022-11-02T03:32:49;2.90;67.10
15879;DHT22;61999;51.514;14.614;2022-11-02T03:35:30;2.90;67.40
15879;DHT22;61999;51.514;14.614;2022-11-02T03:38:04;2.90;67.40
15879;DHT22;61999;51.514;14.614;2022-11-02T03:40:42;2.90;67.50
15879;DHT22;61999;51.514;14.614;2022-11-02T03:43:14;2.90;67.50
15879;DHT22;61999;51.514;14.614;2022-11-02T03:45:48;2.90;67.40
15879;DHT22;61999;51.514;14.614;2022-11-02T03:48:24;2.80;67.30
15879;DHT22;61999;51.514;14.614;2022-11-02T03:50:57;2.80;67.30
15879;DHT22;61999;51.514;14.614;2022-11-02T03:53:34;2.80;67.30
15879;DHT22;61999;51.514;14.614;2022-11-02T03:56:13;2.80;67.30
15879;DHT22;61999;51.514;14.614;2022-11-02T03:58:45;2.70;67.50
15879;DHT22;61999;51.514;14.614;2022-11-02T04:01:14;2.80;67.80
15879;DHT22;61999;51.514;14.614;2022-11-02T04:03:47;2.90;68.00
15879;DHT22;61999;51.514;14.614;2022-11-02T04:06:15;2.80;68.00
15879;DHT22;61999;51.514;14.614;2022-11-02T04:08:45;2.80;68.20
15879;DHT22;61999;51.514;14.614;2022-11-02T04:11:15;2.80;68.00
15879;DHT22;61999;51.514;14.614;2022-11-02T04:14:01;2.80;67.90
15879;DHT22;61999;51.514;14.614;2022-11-02T04:16:47;2.70;67.80
15879;DHT22;61999;51.514;14.614;2022-11-02T04:19:16;2.80;68.00
15879;DHT22;61999;51.514;14.614;2022-11-02T04:21:55;2.70;68.00
15879;DHT22;61999;51.514;14.614;2022-11-02T04:24:42;2.70;67.90
15879;DHT22;61999;51.514;14.614;2022-11-02T04:27:27;2.70;67.90
15879;DHT22;61999;51.514;14.614;2022-11-02T04:29:55;2.70;68.00
15879;DHT22;61999;51.514;14.614;2022-11-02T04:32:23;2.70;68.10
15879;DHT22;61999;51.514;14.614;2022-11-02T04:35:10;2.70;68.20
15879;DHT22;61999;51.514;14.614;2022-11-02T04:37:38;2.70;68.20
15879;DHT22;61999;51.514;14.614;2022-11-02T04:40:24;2.70;68.30
15879;DHT22;61999;51.514;14.614;2022-11-02T04:42:52;2.70;68.70
15879;DHT22;61999;51.514;14.614;2022-11-02T04:45:20;2.90;69.40
15879;DHT22;61999;51.514;14.614;2022-11-02T04:47:48;3.00;70.00
15879;DHT22;61999;51.514;14.614;2022-11-02T04:50:18;3.20;70.40
15879;DHT22;61999;51.514;14.614;2022-11-02T04:52:46;3.20;69.70
15879;DHT22;61999;51.514;14.614;2022-11-02T04:55:14;3.30;70.10
15879;DHT22;61999;51.514;14.614;2022-11-02T04:57:43;3.40;70.30
15879;DHT22;61999;51.514;14.614;2022-11-02T05:00:13;3.60;71.10
15879;DHT22;61999;51.514;14.614;2022-11-02T05:02:42;3.90;70.30
15879;DHT22;61999;51.514;14.614;2022-11-02T05:05:10;3.90;70.00
15879;DHT22;61999;51.514;14.614;2022-11-02T05:07:39;3.90;69.70
15879;DHT22;61999;51.514;14.614;2022-11-02T05:10:08;3.90;69.60
15879;DHT22;61999;51.514;14.614;2022-11-02T05:12:37;3.80;69.50
15879;DHT22;61999;51.514;14.614;2022-11-02T05:15:05;3.70;70.20
15879;DHT22;61999;51.514;14.614;2022-11-02T05:17:34;3.70;69.80
15879;DHT22;61999;51.514;14.614;2022-11-02T05:20:02;3.70;70.10
15879;DHT22;61999;51.514;14.614;2022-11-02T05:22:31;3.80;69.90
15879;DHT22;61999;51.514;14.614;2022-11-02T05:25:00;3.80;69.90
15879;DHT22;61999;51.514;14.614;2022-11-02T05:27:28;4.00;69.50
15879;DHT22;61999;51.514;14.614;2022-11-02T05:29:56;4.00;69.20
15879;DHT22;61999;51.514;14.614;2022-11-02T05:32:25;4.10;69.10
15879;DHT22;61999;51.514;14.614;2022-11-02T05:34:54;4.20;68.60
15879;DHT22;61999;51.514;14.614;2022-11-02T05:37:22;4.10;68.60
15879;DHT22;61999;51.514;14.614;2022-11-02T05:39:50;4.10;68.60
15879;DHT22;61999;51.514;14.614;2022-11-02T05:42:19;4.00;68.70
15879;DHT22;61999;51.514;14.614;2022-11-02T05:44:47;4.00;68.70
15879;DHT22;61999;51.514;14.614;2022-11-02T05:47:15;4.00;68.70
15879;DHT22;61999;51.514;14.614;2022-11-02T05:49:43;4.10;68.60
15879;DHT22;61999;51.514;14.614;2022-11-02T05:52:10;4.00;68.50
15879;DHT22;61999;51.514;14.614;2022-11-02T05:54:38;4.00;68.50
15879;DHT22;61999;51.514;14.614;2022-11-02T05:57:06;3.90;68.40
15879;DHT22;61999;51.514;14.614;2022-11-02T05:59:35;3.90;68.50
15879;DHT22;61999;51.514;14.614;2022-11-02T06:02:03;3.90;68.70
15879;DHT22;61999;51.514;14.614;2022-11-02T06:04:31;3.80;68.70
15879;DHT22;61999;51.514;14.614;2022-11-02T06:06:59;3.60;68.70
15879;DHT22;61999;51.514;14.614;2022-11-02T06:09:27;3.70;69.00
15879;DHT22;61999;51.514;14.614;2022-11-02T06:11:55;3.80;68.80
15879;DHT22;61999;51.514;14.614;2022-11-02T06:14:23;3.80;68.70
15879;DHT22;61999;51.514;14.614;2022-11-02T06:16:52;3.90;68.00
15879;DHT22;61999;51.514;14.614;2022-11-02T06:19:20;3.80;68.40
15879;DHT22;61999;51.514;14.614;2022-11-02T06:21:48;3.80;68.40
15879;DHT22;61999;51.514;14.614;2022-11-02T06:24:16;3.80;68.50
15879;DHT22;61999;51.514;14.614;2022-11-02T06:26:43;3.70;68.50
15879;DHT22;61999;51.514;14.614;2022-11-02T06:29:12;3.60;68.80
15879;DHT22;61999;51.514;14.614;2022-11-02T06:31:40;3.80;68.50
15879;DHT22;61999;51.514;14.614;2022-11-02T06:34:09;3.70;68.60
15879;DHT22;61999;51.514;14.614;2022-11-02T06:36:37;3.90;68.30
15879;DHT22;61999;51.514;14.614;2022-11-02T06:39:05;3.90;68.10
15879;DHT22;61999;51.514;14.614;2022-11-02T06:41:33;3.90;68.30
15879;DHT22;61999;51.514;14.614;2022-11-02T06:44:01;4.00;68.20
15879;DHT22;61999;51.514;14.614;2022-11-02T06:46:29;4.10;68.00
15879;DHT22;61999;51.514;14.614;2022-11-02T06:48:57;4.30;67.40
15879;DHT22;61999;51.514;14.614;2022-11-02T06:51:27;4.40;67.10
15879;DHT22;61999;51.514;14.614;2022-11-02T06:53:54;4.70;66.40
15879;DHT22;61999;51.514;14.614;2022-11-02T06:56:29;4.70;66.00
15879;DHT22;61999;51.514;14.614;2022-11-02T06:59:12;4.90;65.60
15879;DHT22;61999;51.514;14.614;2022-11-02T07:01:40;4.90;65.70
15879;DHT22;61999;51.514;14.614;2022-11-02T07:04:08;4.90;65.40
15879;DHT22;61999;51.514;14.614;2022-11-02T07:06:37;4.90;65.70
15879;DHT22;61999;51.514;14.614;2022-11-02T07:09:05;4.90;65.60
15879;DHT22;61999;51.514;14.614;2022-11-02T07:11:33;4.80;66.20
15879;DHT22;61999;51.514;14.614;2022-11-02T07:14:01;4.90;66.20
15879;DHT22;61999;51.514;14.614;2022-11-02T07:16:29;5.00;66.20
15879;DHT22;61999;51.514;14.614;2022-11-02T07:18:57;5.00;66.70
15879;DHT22;61999;51.514;14.614;2022-11-02T07:21:24;5.00;67.50
15879;DHT22;61999;51.514;14.614;2022-11-02T07:23:54;5.10;68.20
15879;DHT22;61999;51.514;14.614;2022-11-02T07:26:22;5.30;68.20
15879;DHT22;61999;51.514;14.614;2022-11-02T07:28:51;5.50;68.50
15879;DHT22;61999;51.514;14.614;2022-11-02T07:31:20;5.70;68.50
15879;DHT22;61999;51.514;14.614;2022-11-02T07:33:48;5.90;68.50
15879;DHT22;61999;51.514;14.614;2022-11-02T07:36:16;6.20;65.90
15879;DHT22;61999;51.514;14.614;2022-11-02T07:38:44;6.40;65.00
15879;DHT22;61999;51.514;14.614;2022-11-02T07:41:13;6.80;62.00
15879;DHT22;61999;51.514;14.614;2022-11-02T07:43:41;6.90;61.80
15879;DHT22;61999;51.514;14.614;2022-11-02T07:46:09;6.90;62.70
15879;DHT22;61999;51.514;14.614;2022-11-02T07:48:37;7.00;62.30
15879;DHT22;61999;51.514;14.614;2022-11-02T07:51:05;7.20;60.60
15879;DHT22;61999;51.514;14.614;2022-11-02T07:53:33;7.20;60.40
15879;DHT22;61999;51.514;14.614;2022-11-02T07:56:02;7.10;61.10
15879;DHT22;61999;51.514;14.614;2022-11-02T07:58:32;7.10;61.70
15879;DHT22;61999;51.514;14.614;2022-11-02T08:01:00;7.30;60.40
15879;DHT22;61999;51.514;14.614;2022-11-02T08:03:29;7.20;61.60
15879;DHT22;61999;51.514;14.614;2022-11-02T08:05:59;7.30;61.60
15879;DHT22;61999;51.514;14.614;2022-11-02T08:08:28;7.40;62.60
15879;DHT22;61999;51.514;14.614;2022-11-02T08:11:03;7.60;62.30
15879;DHT22;61999;51.514;14.614;2022-11-02T08:13:36;7.90;61.00
15879;DHT22;61999;51.514;14.614;2022-11-02T08:16:29;8.20;59.60
15879;DHT22;61999;51.514;14.614;2022-11-02T08:19:21;8.40;60.60
15879;DHT22;61999;51.514;14.614;2022-11-02T08:22:13;8.70;59.50
15879;DHT22;61999;51.514;14.614;2022-11-02T08:24:43;9.00;58.20
15879;DHT22;61999;51.514;14.614;2022-11-02T08:27:35;9.30;56.70
15879;DHT22;61999;51.514;14.614;2022-11-02T08:30:30;9.50;55.70
15879;DHT22;61999;51.514;14.614;2022-11-02T08:33:02;9.60;55.30
15879;DHT22;61999;51.514;14.614;2022-11-02T08:35:32;9.60;55.30
15879;DHT22;61999;51.514;14.614;2022-11-02T08:38:03;9.80;54.60
15879;DHT22;61999;51.514;14.614;2022-11-02T08:40:55;9.90;54.50
15879;DHT22;61999;51.514;14.614;2022-11-02T08:43:47;9.90;55.00
15879;DHT22;61999;51.514;14.614;2022-11-02T08:46:40;10.10;53.60
15879;DHT22;61999;51.514;14.614;2022-11-02T08:49:32;10.10;53.60
15879;DHT22;61999;51.514;14.614;2022-11-02T08:52:24;9.90;54.40
15879;DHT22;61999;51.514;14.614;2022-11-02T08:55:16;10.00;54.70
15879;DHT22;61999;51.514;14.614;2022-11-02T08:58:09;10.10;54.00
15879;DHT22;61999;51.514;14.614;2022-11-02T09:01:01;10.00;54.80
15879;DHT22;61999;51.514;14.614;2022-11-02T09:03:54;10.30;53.90
15879;DHT22;61999;51.514;14.614;2022-11-02T09:06:46;10.50;53.40
15879;DHT22;61999;51.514;14.614;2022-11-02T09:09:39;10.80;53.20
15879;DHT22;61999;51.514;14.614;2022-11-02T09:12:31;10.90;52.20
15879;DHT22;61999;51.514;14.614;2022-11-02T09:15:24;10.90;52.80
15879;DHT22;61999;51.514;14.614;2022-11-02T09:18:17;11.00;53.30
15879;DHT22;61999;51.514;14.614;2022-11-02T09:21:11;11.20;52.70
15879;DHT22;61999;51.514;14.614;2022-11-02T09:24:04;11.50;51.60
15879;DHT22;61999;51.514;14.614;2022-11-02T09:26:56;11.70;51.10
15879;DHT22;61999;51.514;14.614;2022-11-02T09:29:49;11.80;51.50
15879;DHT22;61999;51.514;14.614;2022-11-02T09:32:21;11.90;50.70
15879;DHT22;61999;51.514;14.614;2022-11-02T09:34:49;12.10;50.10
15879;DHT22;61999;51.514;14.614;2022-11-02T09:37:24;12.10;50.40
15879;DHT22;61999;51.514;14.614;2022-11-02T09:39:53;12.20;49.60
15879;DHT22;61999;51.514;14.614;2022-11-02T09:43:00;12.20;49.00
15879;DHT22;61999;51.514;14.614;2022-11-02T09:45:59;12.00;49.60
15879;DHT22;61999;51.514;14.614;2022-11-02T09:48:34;12.00;49.40
15879;DHT22;61999;51.514;14.614;2022-11-02T09:51:11;12.10;48.70
15879;DHT22;61999;51.514;14.614;2022-11-02T09:54:12;11.80;49.40
15879;DHT22;61999;51.514;14.614;2022-11-02T09:57:12;11.60;49.90
15879;DHT22;61999;51.514;14.614;2022-11-02T10:00:11;11.70;50.10
15879;DHT22;61999;51.514;14.614;2022-11-02T10:03:10;12.00;49.80
15879;DHT22;61999;51.514;14.614;2022-11-02T10:06:12;11.90;49.90
15879;DHT22;61999;51.514;14.614;2022-11-02T10:09:16;12.00;49.80
15879;DHT22;61999;51.514;14.614;2022-11-02T10:12:21;12.30;49.90
15879;DHT22;61999;51.514;14.614;2022-11-02T10:15:20;12.40;48.40
15879;DHT22;61999;51.514;14.614;2022-11-02T10:18:19;12.30;48.90
15879;DHT22;61999;51.514;14.614;2022-11-02T10:21:19;12.10;48.70
15879;DHT22;61999;51.514;14.614;2022-11-02T10:23:50;12.00;49.40
15879;DHT22;61999;51.514;14.614;2022-11-02T10:26:25;12.10;48.60
15879;DHT22;61999;51.514;14.614;2022-11-02T10:29:28;11.90;50.50
15879;DHT22;61999;51.514;14.614;2022-11-02T10:32:31;12.20;49.10
15879;DHT22;61999;51.514;14.614;2022-11-02T10:35:32;12.40;48.30
15879;DHT22;61999;51.514;14.614;2022-11-02T10:38:36;12.20;49.10
15879;DHT22;61999;51.514;14.614;2022-11-02T10:41:38;12.10;49.20
15879;DHT22;61999;51.514;14.614;2022-11-02T10:44:30;11.90;49.80
15879;DHT22;61999;51.514;14.614;2022-11-02T10:47:13;12.00;49.20
15879;DHT22;61999;51.514;14.614;2022-11-02T10:50:10;11.50;50.40
15879;DHT22;61999;51.514;14.614;2022-11-02T10:52:45;11.30;51.00
15879;DHT22;61999;51.514;14.614;2022-11-02T10:55:20;11.40;51.00
15879;DHT22;61999;51.514;14.614;2022-11-02T10:57:55;11.50;50.80
15879;DHT22;61999;51.514;14.614;2022-11-02T11:00:29;11.70;50.60
15879;DHT22;61999;51.514;14.614;2022-11-02T11:03:09;11.60;50.70
15879;DHT22;61999;51.514;14.614;2022-11-02T11:05:53;11.40;50.80
15879;DHT22;61999;51.514;14.614;2022-11-02T11:08:28;11.30;51.40
15879;DHT22;61999;51.514;14.614;2022-11-02T11:11:16;11.10;51.70
15879;DHT22;61999;51.514;14.614;2022-11-02T11:13:55;10.90;52.40
15879;DHT22;61999;51.514;14.614;2022-11-02T11:16:48;10.80;53.00
15879;DHT22;61999;51.514;14.614;2022-11-02T11:19:23;10.90;52.20
15879;DHT22;61999;51.514;14.614;2022-11-02T11:22:02;10.80;52.10
15879;DHT22;61999;51.514;14.614;2022-11-02T11:24:49;10.70;52.20
15879;DHT22;61999;51.514;14.614;2022-11-02T11:27:19;10.90;52.10
15879;DHT22;61999;51.514;14.614;2022-11-02T11:29:52;11.00;51.40
15879;DHT22;61999;51.514;14.614;2022-11-02T11:32:25;11.20;51.80
15879;DHT22;61999;51.514;14.614;2022-11-02T11:35:13;11.70;49.90
15879;DHT22;61999;51.514;14.614;2022-11-02T11:37:51;11.90;49.40
15879;DHT22;61999;51.514;14.614;2022-11-02T11:40:22;12.10;48.50
15879;DHT22;61999;51.514;14.614;2022-11-02T11:42:52;12.20;48.20
15879;DHT22;61999;51.514;14.614;2022-11-02T11:45:26;12.30;47.80
15879;DHT22;61999;51.514;14.614;2022-11-02T11:48:00;12.40;48.00
15879;DHT22;61999;51.514;14.614;2022-11-02T11:50:33;12.80;48.20
15879;DHT22;61999;51.514;14.614;2022-11-02T11:53:24;13.20;47.10
15879;DHT22;61999;51.514;14.614;2022-11-02T11:55:54;13.60;44.90
15879;DHT22;61999;51.514;14.614;2022-11-02T11:58:26;13.70;44.30
15879;DHT22;61999;51.514;14.614;2022-11-02T12:01:04;13.30;44.80
15879;DHT22;61999;51.514;14.614;2022-11-02T12:03:49;13.20;45.10
15879;DHT22;61999;51.514;14.614;2022-11-02T12:06:22;13.10;45.30
15879;DHT22;61999;51.514;14.614;2022-11-02T12:09:01;13.20;44.80
15879;DHT22;61999;51.514;14.614;2022-11-02T12:11:43;12.90;44.80
15879;DHT22;61999;51.514;14.614;2022-11-02T12:14:28;12.80;45.70
15879;DHT22;61999;51.514;14.614;2022-11-02T12:17:24;12.90;45.50
15879;DHT22;61999;51.514;14.614;2022-11-02T12:20:18;13.00;45.50
15879;DHT22;61999;51.514;14.614;2022-11-02T12:23:11;13.10;45.20
15879;DHT22;61999;51.514;14.614;2022-11-02T12:25:50;13.30;45.00
15879;DHT22;61999;51.514;14.614;2022-11-02T12:28:33;13.60;45.40
15879;DHT22;61999;51.514;14.614;2022-11-02T12:31:18;14.00;44.90
15879;DHT22;61999;51.514;14.614;2022-11-02T12:34:15;14.50;43.70
15879;DHT22;61999;51.514;14.614;2022-11-02T12:37:03;14.60;43.20
15879;DHT22;61999;51.514;14.614;2022-11-02T12:40:17;14.70;42.80
15879;DHT22;61999;51.514;14.614;2022-11-02T12:43:02;14.80;42.30
15879;DHT22;61999;51.514;14.614;2022-11-02T12:45:51;14.60;43.20
15879;DHT22;61999;51.514;14.614;2022-11-02T12:48:33;14.70;43.00
15879;DHT22;61999;51.514;14.614;2022-11-02T12:51:12;14.80;42.80
15879;DHT22;61999;51.514;14.614;2022-11-02T12:53:47;15.10;42.60
15879;DHT22;61999;51.514;14.614;2022-11-02T12:56:20;15.40;41.10
15879;DHT22;61999;51.514;14.614;2022-11-02T12:58:54;15.30;40.50
15879;DHT22;61999;51.514;14.614;2022-11-02T13:01:26;15.10;40.90
15879;DHT22;61999;51.514;14.614;2022-11-02T13:04:03;14.60;41.10
15879;DHT22;61999;51.514;14.614;2022-11-02T13:06:43;13.90;42.40
15879;DHT22;61999;51.514;14.614;2022-11-02T13:09:20;13.30;43.30
15879;DHT22;61999;51.514;14.614;2022-11-02T13:11:56;12.90;43.70
15879;DHT22;61999;51.514;14.614;2022-11-02T13:14:35;12.60;44.40
15879;DHT22;61999;51.514;14.614;2022-11-02T13:17:11;12.50;43.90
15879;DHT22;61999;51.514;14.614;2022-11-02T13:19:46;12.30;45.10
15879;DHT22;61999;51.514;14.614;2022-11-02T13:22:43;12.20;44.60
15879;DHT22;61999;51.514;14.614;2022-11-02T13:25:41;12.30;44.90
15879;DHT22;61999;51.514;14.614;2022-11-02T13:28:41;12.50;44.10
15879;DHT22;61999;51.514;14.614;2022-11-02T13:31:16;12.40;44.20
15879;DHT22;61999;51.514;14.614;2022-11-02T13:33:53;12.50;43.90
15879;DHT22;61999;51.514;14.614;2022-11-02T13:36:25;12.60;44.70
15879;DHT22;61999;51.514;14.614;2022-11-02T13:38:59;12.80;45.00
15879;DHT22;61999;51.514;14.614;2022-11-02T13:41:41;13.30;43.00
15879;DHT22;61999;51.514;14.614;2022-11-02T13:44:55;13.70;42.80
15879;DHT22;61999;51.514;14.614;2022-11-02T13:48:02;14.00;42.30
15879;DHT22;61999;51.514;14.614;2022-11-02T13:50:52;14.60;39.90
15879;DHT22;61999;51.514;14.614;2022-11-02T13:53:53;14.50;39.40
15879;DHT22;61999;51.514;14.614;2022-11-02T13:56:52;14.30;40.00
15879;DHT22;61999;51.514;14.614;2022-11-02T13:59:47;14.10;40.40
15879;DHT22;61999;51.514;14.614;2022-11-02T14:02:40;14.20;40.30
15879;DHT22;61999;51.514;14.614;2022-11-02T14:05:40;14.30;41.80
15879;DHT22;61999;51.514;14.614;2022-11-02T14:08:40;14.60;40.40
15879;DHT22;61999;51.514;14.614;2022-11-02T14:11:35;14.90;41.30
15879;DHT22;61999;51.514;14.614;2022-11-02T14:14:19;15.50;38.40
15879;DHT22;61999;51.514;14.614;2022-11-02T14:17:09;15.70;37.50
15879;DHT22;61999;51.514;14.614;2022-11-02T14:19:51;15.50;37.80
15879;DHT22;61999;51.514;14.614;2022-11-02T14:22:21;15.50;36.90
15879;DHT22;61999;51.514;14.614;2022-11-02T14:24:54;15.00;37.20
15879;DHT22;61999;51.514;14.614;2022-11-02T14:27:35;14.70;37.40
15879;DHT22;61999;51.514;14.614;2022-11-02T14:30:20;14.50;38.50
15879;DHT22;61999;51.514;14.614;2022-11-02T14:33:14;14.40;38.90
15879;DHT22;61999;51.514;14.614;2022-11-02T14:36:41;14.40;38.50
15879;DHT22;61999;51.514;14.614;2022-11-02T14:39:48;14.30;39.00
15879;DHT22;61999;51.514;14.614;2022-11-02T14:42:33;14.40;39.00
15879;DHT22;61999;51.514;14.614;2022-11-02T14:45:28;14.70;38.60
15879;DHT22;61999;51.514;14.614;2022-11-02T14:48:13;14.70;38.90
15879;DHT22;61999;51.514;14.614;2022-11-02T14:50:43;14.70;39.10
15879;DHT22;61999;51.514;14.614;2022-11-02T14:53:28;14.70;38.90
15879;DHT22;61999;51.514;14.614;2022-11-02T14:55:59;14.60;39.10
15879;DHT22;61999;51.514;14.614;2022-11-02T14:58:32;14.60;38.30
15879;DHT22;61999;51.514;14.614;2022-11-02T15:01:12;14.50;38.50
15879;DHT22;61999;51.514;14.614;2022-11-02T15:03:42;14.30;38.90
15879;DHT22;61999;51.514;14.614;2022-11-02T15:06:16;14.10;39.40
15879;DHT22;61999;51.514;14.614;2022-11-02T15:08:52;13.90;39.80
15879;DHT22;61999;51.514;14.614;2022-11-02T15:11:47;13.70;39.90
15879;DHT22;61999;51.514;14.614;2022-11-02T15:14:55;13.70;39.50
15879;DHT22;61999;51.514;14.614;2022-11-02T15:17:52;13.90;38.80
15879;DHT22;61999;51.514;14.614;2022-11-02T15:20:30;13.60;39.10
15879;DHT22;61999;51.514;14.614;2022-11-02T15:23:26;13.40;39.50
15879;DHT22;61999;51.514;14.614;2022-11-02T15:25:57;13.00;40.30
15879;DHT22;61999;51.514;14.614;2022-11-02T15:28:27;12.70;40.40
15879;DHT22;61999;51.514;14.614;2022-11-02T15:31:03;12.60;40.80
15879;DHT22;61999;51.514;14.614;2022-11-02T15:33:42;12.50;40.80
15879;DHT22;61999;51.514;14.614;2022-11-02T15:36:14;12.30;40.70
15879;DHT22;61999;51.514;14.614;2022-11-02T15:38:47;12.10;41.40
15879;DHT22;61999;51.514;14.614;2022-11-02T15:41:22;12.00;41.60
15879;DHT22;61999;51.514;14.614;2022-11-02T15:44:18;11.80;41.60
15879;DHT22;61999;51.514;14.614;2022-11-02T15:47:01;11.60;42.30
15879;DHT22;61999;51.514;14.614;2022-11-02T15:49:52;11.40;42.50
15879;DHT22;61999;51.514;14.614;2022-11-02T15:52:44;11.00;42.80
15879;DHT22;61999;51.514;14.614;2022-11-02T15:55:48;10.70;43.90
15879;DHT22;61999;51.514;14.614;2022-11-02T15:58:36;10.60;44.10
15879;DHT22;61999;51.514;14.614;2022-11-02T16:01:18;10.50;44.20
15879;DHT22;61999;51.514;14.614;2022-11-02T16:03:51;10.50;44.40
15879;DHT22;61999;51.514;14.614;2022-11-02T16:06:25;10.60;44.20
15879;DHT22;61999;51.514;14.614;2022-11-02T16:08:56;10.40;44.60
15879;DHT22;61999;51.514;14.614;2022-11-02T16:11:26;10.20;44.90
15879;DHT22;61999;51.514;14.614;2022-11-02T16:14:14;10.00;45.10
15879;DHT22;61999;51.514;14.614;2022-11-02T16:16:46;9.80;45.60
15879;DHT22;61999;51.514;14.614;2022-11-02T16:19:19;9.70;46.50
15879;DHT22;61999;51.514;14.614;2022-11-02T16:21:48;9.60;45.40
15879;DHT22;61999;51.514;14.614;2022-11-02T16:24:17;9.40;45.70
15879;DHT22;61999;51.514;14.614;2022-11-02T16:26:46;9.30;46.20
15879;DHT22;61999;51.514;14.614;2022-11-02T16:29:24;9.30;46.60
15879;DHT22;61999;51.514;14.614;2022-11-02T16:31:56;9.40;46.70
15879;DHT22;61999;51.514;14.614;2022-11-02T16:34:28;9.60;46.30